createdAt,value
2019-02-19T00:00:48.429Z,2.90
2019-02-19T00:03:17.791Z,2.90
2019-02-19T00:05:46.968Z,2.80
2019-02-19T00:08:16.143Z,3.00
2019-02-19T00:10:45.522Z,2.80
2019-02-19T00:13:14.727Z,2.90
2019-02-19T00:15:43.957Z,3.00
2019-02-19T00:18:13.271Z,3.00
2019-02-19T00:20:42.582Z,2.80
2019-02-19T00:23:11.784Z,2.90
2019-02-19T00:25:41.058Z,2.90
2019-02-19T00:28:10.242Z,2.80
2019-02-19T00:30:39.497Z,2.80
2019-02-19T00:33:08.704Z,2.80
2019-02-19T00:35:38.050Z,2.90
2019-02-19T00:38:07.270Z,2.90
2019-02-19T00:40:36.441Z,2.70
2019-02-19T00:43:05.631Z,2.60
2019-02-19T00:45:34.897Z,2.40
2019-02-19T00:48:04.084Z,2.40
2019-02-19T00:50:33.345Z,2.50
2019-02-19T00:53:02.547Z,2.60
2019-02-19T00:55:31.751Z,2.50
2019-02-19T00:58:01.019Z,2.60
2019-02-19T01:00:30.196Z,2.50
2019-02-19T01:02:59.402Z,2.60
2019-02-19T01:05:28.605Z,2.50
2019-02-19T01:07:57.864Z,2.60
2019-02-19T01:10:27.071Z,2.60
2019-02-19T01:12:56.890Z,2.30
2019-02-19T01:15:26.117Z,2.30
2019-02-19T01:17:55.328Z,2.30
2019-02-19T01:20:24.548Z,2.40
2019-02-19T01:22:53.778Z,2.40
2019-02-19T01:25:23.014Z,2.30
2019-02-19T01:27:52.273Z,2.10
2019-02-19T01:30:21.470Z,2.10
2019-02-19T01:32:50.654Z,2.20
2019-02-19T01:35:19.926Z,2.10
2019-02-19T01:37:49.285Z,2.10
2019-02-19T01:40:18.537Z,2.00
2019-02-19T01:42:47.721Z,2.00
2019-02-19T01:45:16.984Z,1.80
2019-02-19T01:47:46.161Z,1.80
2019-02-19T01:50:15.438Z,1.80
2019-02-19T01:52:44.683Z,1.80
2019-02-19T01:55:13.846Z,1.80
2019-02-19T01:57:43.054Z,1.80
2019-02-19T02:00:12.418Z,2.00
2019-02-19T02:02:41.687Z,2.10
2019-02-19T02:05:10.978Z,2.00
2019-02-19T02:07:40.256Z,2.00
2019-02-19T02:10:09.456Z,2.10
2019-02-19T02:12:38.630Z,2.10
2019-02-19T02:15:08.289Z,2.00
2019-02-19T02:17:37.537Z,1.90
2019-02-19T02:20:07.017Z,1.80
2019-02-19T02:22:36.181Z,1.70
2019-02-19T02:25:05.399Z,1.80
2019-02-19T02:27:34.644Z,1.80
2019-02-19T02:30:03.933Z,1.90
2019-02-19T02:32:33.110Z,2.00
2019-02-19T02:35:02.398Z,2.00
2019-02-19T02:37:31.599Z,1.80
2019-02-19T02:40:00.884Z,1.70
2019-02-19T02:42:30.104Z,1.80
2019-02-19T02:44:59.351Z,1.90
2019-02-19T02:47:28.654Z,1.90
2019-02-19T02:49:57.893Z,1.80
2019-02-19T02:52:27.173Z,1.70
2019-02-19T02:54:56.430Z,1.80
2019-02-19T02:57:25.623Z,1.90
2019-02-19T02:59:54.937Z,2.00
2019-02-19T03:02:24.191Z,1.90
2019-02-19T03:04:53.655Z,1.90
2019-02-19T03:07:40.960Z,1.90
2019-02-19T03:10:10.157Z,1.90
2019-02-19T03:12:39.454Z,2.00
2019-02-19T03:15:09.140Z,2.00
2019-02-19T03:17:38.400Z,1.90
2019-02-19T03:20:07.627Z,1.90
2019-02-19T03:22:36.919Z,1.80
2019-02-19T03:25:06.163Z,1.80
2019-02-19T03:27:35.351Z,1.80
2019-02-19T03:30:04.916Z,1.80
2019-02-19T03:32:34.172Z,1.80
2019-02-19T03:35:03.466Z,1.70
2019-02-19T03:37:32.667Z,1.80
2019-02-19T03:40:01.975Z,1.80
2019-02-19T03:42:31.290Z,1.90
2019-02-19T03:45:00.698Z,1.90
2019-02-19T03:47:29.978Z,2.00
2019-02-19T03:49:59.199Z,2.00
2019-02-19T03:52:28.438Z,2.10
2019-02-19T03:54:57.658Z,2.10
2019-02-19T03:57:27.040Z,2.10
2019-02-19T03:59:56.368Z,2.20
2019-02-19T04:02:25.549Z,2.30
2019-02-19T04:04:54.728Z,2.40
2019-02-19T04:07:23.967Z,2.50
2019-02-19T04:09:53.333Z,2.60
2019-02-19T04:12:22.581Z,2.60
2019-02-19T04:14:51.778Z,2.60
2019-02-19T04:17:21.012Z,2.60
2019-02-19T04:19:50.315Z,2.60
2019-02-19T04:22:19.554Z,2.60
2019-02-19T04:24:48.824Z,2.60
2019-02-19T04:27:18.008Z,2.70
2019-02-19T04:29:47.292Z,2.70
2019-02-19T04:32:16.537Z,2.70
2019-02-19T04:34:46.201Z,2.80
2019-02-19T04:37:15.550Z,2.80
2019-02-19T04:39:44.832Z,2.80
2019-02-19T04:42:14.141Z,2.80
2019-02-19T04:44:43.429Z,2.90
2019-02-19T04:47:12.755Z,3.00
2019-02-19T04:49:42.010Z,3.00
2019-02-19T04:52:11.166Z,3.10
2019-02-19T04:54:40.416Z,3.10
2019-02-19T04:57:09.619Z,3.20
2019-02-19T04:59:39.517Z,3.30
2019-02-19T05:02:08.705Z,3.30
2019-02-19T05:04:37.937Z,3.30
2019-02-19T05:07:07.181Z,3.40
2019-02-19T05:09:36.400Z,3.40
2019-02-19T05:12:05.604Z,3.40
2019-02-19T05:14:34.900Z,3.30
2019-02-19T05:17:04.055Z,3.30
2019-02-19T05:19:33.234Z,3.30
2019-02-19T05:22:02.468Z,3.30
2019-02-19T05:24:31.609Z,3.30
2019-02-19T05:27:00.988Z,3.30
2019-02-19T05:29:30.179Z,3.40
2019-02-19T05:31:59.432Z,3.30
2019-02-19T05:34:28.570Z,3.30
2019-02-19T05:36:57.748Z,3.30
2019-02-19T05:39:27.014Z,3.40
2019-02-19T05:41:56.195Z,3.40
2019-02-19T05:44:25.453Z,3.30
2019-02-19T05:46:54.620Z,3.30
2019-02-19T05:49:23.785Z,3.30
2019-02-19T05:51:53.000Z,3.20
2019-02-19T05:54:22.284Z,3.20
2019-02-19T05:56:52.500Z,3.20
2019-02-19T05:59:21.683Z,3.10
2019-02-19T06:01:50.912Z,3.10
2019-02-19T06:04:20.080Z,3.10
2019-02-19T06:06:49.372Z,3.00
2019-02-19T06:09:18.589Z,3.00
2019-02-19T06:11:47.817Z,3.00
2019-02-19T06:14:17.033Z,3.00
2019-02-19T06:16:46.233Z,3.00
2019-02-19T06:19:15.519Z,3.10
2019-02-19T06:21:44.675Z,3.20
2019-02-19T06:24:13.961Z,3.30
2019-02-19T06:26:43.201Z,3.50
2019-02-19T06:29:12.376Z,3.60
2019-02-19T06:31:41.505Z,3.70
2019-02-19T06:34:10.769Z,3.80
2019-02-19T06:36:39.960Z,3.80
2019-02-19T06:39:09.294Z,3.80
2019-02-19T06:41:38.639Z,3.80
2019-02-19T06:44:07.848Z,3.80
2019-02-19T06:46:37.004Z,4.00
2019-02-19T06:49:06.302Z,4.00
2019-02-19T06:51:35.524Z,4.10
2019-02-19T06:54:04.705Z,4.10
2019-02-19T06:56:33.862Z,4.20
2019-02-19T06:59:03.141Z,4.20
2019-02-19T07:02:03.188Z,4.30
2019-02-19T07:04:42.443Z,4.40
2019-02-19T07:07:11.624Z,4.50
2019-02-19T07:09:40.823Z,4.60
2019-02-19T07:12:10.093Z,4.60
2019-02-19T07:14:39.337Z,4.60
2019-02-19T07:17:15.487Z,4.70
2019-02-19T07:19:39.670Z,4.80
2019-02-19T07:22:08.923Z,4.90
2019-02-19T07:24:38.158Z,5.00
2019-02-19T07:27:07.466Z,5.00
2019-02-19T07:29:36.693Z,5.10
2019-02-19T07:32:05.916Z,5.20
2019-02-19T07:34:35.241Z,5.30
2019-02-19T07:37:04.472Z,5.30
2019-02-19T07:39:33.642Z,5.30
2019-02-19T07:42:02.879Z,5.20
2019-02-19T07:44:32.290Z,5.30
2019-02-19T07:47:01.456Z,5.30
2019-02-19T07:49:30.694Z,5.30
2019-02-19T07:51:59.949Z,5.40
2019-02-19T07:54:29.155Z,5.40
2019-02-19T07:56:58.428Z,5.60
2019-02-19T07:59:27.612Z,5.70
2019-02-19T08:01:56.770Z,5.80
2019-02-19T08:04:25.970Z,5.80
2019-02-19T08:06:55.169Z,5.90
2019-02-19T08:09:24.388Z,6.00
2019-02-19T08:11:53.578Z,6.20
2019-02-19T08:14:22.753Z,6.30
2019-02-19T08:16:51.969Z,6.30
2019-02-19T08:19:21.213Z,6.40
2019-02-19T08:21:50.447Z,6.40
2019-02-19T08:24:19.606Z,6.50
2019-02-19T08:26:48.866Z,6.60
2019-02-19T08:29:18.131Z,6.70
2019-02-19T08:31:47.368Z,6.70
2019-02-19T08:34:16.664Z,7.00
2019-02-19T08:36:45.840Z,7.40
2019-02-19T08:39:15.208Z,7.90
2019-02-19T08:41:44.439Z,8.20
2019-02-19T08:44:13.589Z,8.40
2019-02-19T08:46:42.846Z,8.60
2019-02-19T08:49:12.077Z,8.80
2019-02-19T08:51:41.349Z,8.80
2019-02-19T08:54:10.587Z,8.80
2019-02-19T08:56:39.764Z,8.90
2019-02-19T08:59:08.957Z,9.00
2019-02-19T09:01:38.223Z,8.90
2019-02-19T09:04:07.465Z,9.00
2019-02-19T09:06:36.782Z,9.00
2019-02-19T09:09:06.981Z,9.20
2019-02-19T09:11:36.139Z,9.40
2019-02-19T09:14:05.333Z,9.70
2019-02-19T09:16:34.579Z,9.80
2019-02-19T09:19:03.773Z,9.80
2019-02-19T09:21:32.957Z,9.70
2019-02-19T09:24:09.223Z,9.90
2019-02-19T09:26:33.175Z,10.20
2019-02-19T09:29:02.425Z,10.60
2019-02-19T09:31:31.698Z,10.90
2019-02-19T09:34:00.896Z,11.30
2019-02-19T09:36:30.079Z,11.50
2019-02-19T09:38:59.329Z,11.60
2019-02-19T09:41:28.569Z,11.60
2019-02-19T09:43:57.784Z,11.90
2019-02-19T09:46:27.093Z,11.80
2019-02-19T09:48:56.377Z,12.20
2019-02-19T09:51:25.538Z,12.20
2019-02-19T09:53:54.920Z,12.20
2019-02-19T09:56:24.083Z,12.00
2019-02-19T09:58:53.277Z,12.00
2019-02-19T10:01:22.458Z,12.10
2019-02-19T10:03:51.666Z,12.10
2019-02-19T10:06:20.901Z,12.10
2019-02-19T10:08:50.057Z,12.20
2019-02-19T10:11:19.272Z,12.20
2019-02-19T10:13:48.475Z,12.30
2019-02-19T10:16:17.754Z,12.40
2019-02-19T10:18:46.931Z,12.50
2019-02-19T10:21:16.113Z,12.60
2019-02-19T10:23:45.259Z,12.80
2019-02-19T10:26:14.536Z,12.80
2019-02-19T10:28:43.725Z,12.90
2019-02-19T10:31:12.970Z,13.00
2019-02-19T10:33:42.153Z,13.20
2019-02-19T10:36:11.337Z,13.30
2019-02-19T10:38:40.568Z,13.40
2019-02-19T10:41:09.733Z,13.20
2019-02-19T10:43:38.880Z,13.30
2019-02-19T10:46:08.051Z,13.00
2019-02-19T10:48:37.286Z,13.00
2019-02-19T10:51:06.549Z,13.00
2019-02-19T10:53:35.813Z,13.00
2019-02-19T10:56:05.002Z,13.00
2019-02-19T10:58:34.146Z,13.30
2019-02-19T11:01:03.380Z,13.40
2019-02-19T11:03:32.644Z,13.40
2019-02-19T11:06:01.904Z,13.60
2019-02-19T11:08:31.149Z,13.60
2019-02-19T11:11:00.332Z,13.80
2019-02-19T11:13:29.489Z,13.60
2019-02-19T11:15:58.797Z,13.30
2019-02-19T11:18:28.880Z,13.10
2019-02-19T11:20:58.314Z,12.90
2019-02-19T11:23:27.628Z,12.70
2019-02-19T11:25:56.812Z,12.60
2019-02-19T11:28:25.994Z,12.50
2019-02-19T11:30:55.157Z,12.60
2019-02-19T11:33:24.431Z,12.60
2019-02-19T11:35:54.819Z,12.50
2019-02-19T11:38:24.152Z,12.80
2019-02-19T11:40:53.316Z,12.70
2019-02-19T11:43:22.567Z,12.50
2019-02-19T11:45:51.790Z,12.80
2019-02-19T11:48:21.037Z,12.90
2019-02-19T11:50:50.220Z,13.30
2019-02-19T11:53:19.405Z,13.20
2019-02-19T11:55:48.550Z,13.00
2019-02-19T11:58:17.808Z,12.80
2019-02-19T12:00:47.069Z,12.50
2019-02-19T12:03:16.288Z,12.20
2019-02-19T12:05:45.562Z,12.20
2019-02-19T12:08:14.813Z,12.00
2019-02-19T12:10:44.054Z,11.70
2019-02-19T12:13:13.265Z,11.50
2019-02-19T12:15:42.483Z,11.30
2019-02-19T12:18:11.782Z,11.40
2019-02-19T12:20:41.084Z,11.40
2019-02-19T12:23:10.653Z,11.40
2019-02-19T12:25:39.847Z,11.30
2019-02-19T12:28:09.103Z,11.30
2019-02-19T12:30:38.442Z,11.40
2019-02-19T12:33:07.740Z,11.50
2019-02-19T12:35:37.028Z,11.40
2019-02-19T12:38:06.339Z,11.30
2019-02-19T12:40:35.555Z,11.30
2019-02-19T12:43:04.850Z,11.40
2019-02-19T12:45:34.142Z,11.30
2019-02-19T12:48:03.421Z,11.20
2019-02-19T12:50:35.311Z,11.10
2019-02-19T12:53:04.498Z,11.00
2019-02-19T12:55:33.699Z,10.80
2019-02-19T12:58:02.890Z,10.90
2019-02-19T13:00:32.078Z,10.90
2019-02-19T13:03:02.086Z,10.70
2019-02-19T13:05:31.294Z,10.80
2019-02-19T13:08:00.513Z,10.70
2019-02-19T13:10:29.887Z,10.40
2019-02-19T13:12:59.122Z,10.30
2019-02-19T13:15:28.359Z,10.20
2019-02-19T13:17:57.562Z,10.30
2019-02-19T13:20:27.068Z,10.40
2019-02-19T13:22:56.653Z,10.40
2019-02-19T13:25:26.175Z,10.40
2019-02-19T13:27:55.411Z,10.40
2019-02-19T13:30:24.665Z,10.50
2019-02-19T13:32:53.947Z,10.40
2019-02-19T13:35:23.137Z,10.30
2019-02-19T13:37:52.351Z,10.30
2019-02-19T13:40:21.587Z,10.40
2019-02-19T13:42:50.922Z,10.40
2019-02-19T13:45:20.155Z,10.40
2019-02-19T13:47:49.448Z,10.50
2019-02-19T13:50:19.834Z,10.50
2019-02-19T13:52:54.273Z,10.50
2019-02-19T13:55:27.063Z,10.50
2019-02-19T13:57:57.465Z,10.50
2019-02-19T14:00:28.810Z,10.50
2019-02-19T14:02:58.652Z,10.60
2019-02-19T14:05:28.200Z,10.60
2019-02-19T14:07:57.594Z,10.60
2019-02-19T14:10:26.935Z,10.60
2019-02-19T14:12:56.282Z,10.60
2019-02-19T14:15:42.971Z,10.70
2019-02-19T14:18:14.926Z,10.70
2019-02-19T14:21:00.151Z,10.80
2019-02-19T14:23:46.923Z,10.90
2019-02-19T14:26:53.479Z,11.00
2019-02-19T14:29:40.733Z,10.90
2019-02-19T14:32:26.319Z,10.90
2019-02-19T14:35:08.090Z,11.00
2019-02-19T14:37:46.008Z,11.00
2019-02-19T14:40:33.086Z,11.00
2019-02-19T14:43:30.413Z,11.10
2019-02-19T14:46:27.844Z,11.30
2019-02-19T14:49:19.084Z,11.40
2019-02-19T14:52:10.476Z,11.50
2019-02-19T14:54:57.339Z,11.40
2019-02-19T14:57:36.108Z,11.30
2019-02-19T15:00:17.716Z,11.20
2019-02-19T15:03:09.131Z,11.20
2019-02-19T15:06:03.424Z,11.20
2019-02-19T15:09:03.561Z,11.20
2019-02-19T15:12:06.807Z,11.20
2019-02-19T15:15:04.626Z,11.30
2019-02-19T15:17:58.741Z,11.30
2019-02-19T15:21:05.196Z,11.20
2019-02-19T15:23:52.173Z,11.20
2019-02-19T15:26:36.153Z,11.20
2019-02-19T15:29:22.838Z,11.10
2019-02-19T15:31:59.883Z,11.10
2019-02-19T15:34:48.019Z,11.10
2019-02-19T15:37:34.890Z,11.00
2019-02-19T15:40:41.232Z,10.90
2019-02-19T15:43:47.705Z,10.80
2019-02-19T15:46:33.903Z,10.80
2019-02-19T15:49:22.367Z,10.70
2019-02-19T15:52:13.349Z,10.60
2019-02-19T15:54:59.964Z,10.60
2019-02-19T15:58:04.885Z,10.50
2019-02-19T16:00:53.313Z,10.40
2019-02-19T16:03:50.438Z,10.40
2019-02-19T16:06:53.983Z,10.30
2019-02-19T16:09:42.368Z,10.20
2019-02-19T16:12:36.552Z,10.30
2019-02-19T16:15:34.206Z,10.30
2019-02-19T16:18:20.767Z,10.20
2019-02-19T16:21:02.308Z,10.20
2019-02-19T16:23:46.683Z,10.10
2019-02-19T16:26:27.695Z,10.00
2019-02-19T16:29:21.921Z,10.00
2019-02-19T16:32:12.945Z,9.90
2019-02-19T16:34:49.643Z,9.90
2019-02-19T16:37:28.913Z,10.00
2019-02-19T16:40:17.169Z,10.00
2019-02-19T16:43:15.667Z,10.00
2019-02-19T16:46:09.706Z,9.90
2019-02-19T16:48:55.064Z,10.00
2019-02-19T16:51:47.813Z,10.00
2019-02-19T16:54:36.131Z,9.90
2019-02-19T16:57:21.574Z,9.90
2019-02-19T17:00:09.852Z,9.90
2019-02-19T17:02:56.706Z,9.90
2019-02-19T17:05:48.148Z,9.90
2019-02-19T17:08:35.187Z,9.70
2019-02-19T17:11:16.657Z,9.60
2019-02-19T17:14:04.843Z,9.50
2019-02-19T17:16:51.778Z,9.40
2019-02-19T17:19:40.140Z,9.40
2019-02-19T17:22:28.521Z,9.50
2019-02-19T17:25:15.208Z,9.40
2019-02-19T17:27:55.324Z,9.40
2019-02-19T17:30:46.863Z,9.40
2019-02-19T17:33:37.010Z,9.20
2019-02-19T17:36:21.507Z,9.00
2019-02-19T17:39:09.920Z,8.90
2019-02-19T17:41:57.496Z,8.90
2019-02-19T17:44:35.480Z,8.80
2019-02-19T17:47:22.139Z,8.70
2019-02-19T17:49:59.384Z,8.70
2019-02-19T17:52:58.551Z,8.50
2019-02-19T17:55:46.300Z,8.50
2019-02-19T17:58:27.867Z,8.50
2019-02-19T18:01:03.823Z,8.40
2019-02-19T18:03:48.255Z,8.30
2019-02-19T18:06:29.128Z,8.20
2019-02-19T18:09:08.173Z,8.10
2019-02-19T18:12:03.201Z,8.00
2019-02-19T18:15:03.648Z,8.00
2019-02-19T18:17:39.547Z,7.90
2019-02-19T18:20:08.831Z,7.90
2019-02-19T18:22:38.088Z,7.80
2019-02-19T18:25:08.704Z,7.80
2019-02-19T18:27:38.171Z,7.80
2019-02-19T18:30:07.615Z,7.70
2019-02-19T18:32:36.994Z,7.50
2019-02-19T18:35:06.537Z,7.40
2019-02-19T18:37:35.953Z,7.40
2019-02-19T18:40:05.455Z,7.30
2019-02-19T18:42:34.651Z,7.20
2019-02-19T18:45:04.063Z,7.10
2019-02-19T18:47:33.358Z,7.10
2019-02-19T18:50:03.270Z,7.00
2019-02-19T18:52:32.578Z,7.00
2019-02-19T18:55:01.902Z,7.00
2019-02-19T18:57:31.152Z,7.00
2019-02-19T19:00:00.589Z,7.10
2019-02-19T19:02:29.989Z,7.00
2019-02-19T19:04:59.358Z,6.90
2019-02-19T19:07:28.678Z,6.90
2019-02-19T19:09:58.069Z,6.90
2019-02-19T19:12:27.344Z,6.50
2019-02-19T19:14:56.702Z,6.50
2019-02-19T19:17:26.202Z,6.40
2019-02-19T19:19:55.677Z,6.30
2019-02-19T19:22:25.031Z,6.30
2019-02-19T19:24:54.979Z,6.20
2019-02-19T19:27:24.188Z,6.20
2019-02-19T19:29:55.139Z,6.20
2019-02-19T19:32:24.572Z,6.30
2019-02-19T19:34:53.871Z,6.20
2019-02-19T19:37:23.230Z,6.10
2019-02-19T19:39:52.598Z,6.00
2019-02-19T19:42:21.888Z,6.00
2019-02-19T19:44:51.118Z,6.10
2019-02-19T19:47:20.407Z,5.90
2019-02-19T19:49:49.605Z,5.90
2019-02-19T19:52:21.783Z,5.90
2019-02-19T19:54:51.065Z,5.90
2019-02-19T19:57:20.627Z,5.70
2019-02-19T19:59:49.963Z,5.50
2019-02-19T20:02:19.993Z,5.60
2019-02-19T20:04:49.506Z,5.60
2019-02-19T20:07:18.912Z,5.40
2019-02-19T20:09:48.232Z,5.40
2019-02-19T20:12:17.649Z,5.60
2019-02-19T20:14:46.912Z,5.60
2019-02-19T20:17:16.610Z,5.60
2019-02-19T20:19:46.125Z,5.40
2019-02-19T20:22:15.567Z,5.40
2019-02-19T20:24:44.960Z,5.40
2019-02-19T20:27:14.472Z,5.10
2019-02-19T20:29:43.830Z,5.10
2019-02-19T20:32:13.177Z,5.10
2019-02-19T20:34:42.597Z,5.00
2019-02-19T20:37:12.184Z,5.00
2019-02-19T20:39:45.994Z,5.00
2019-02-19T20:42:15.566Z,5.00
2019-02-19T20:44:44.894Z,4.90
2019-02-19T20:47:14.292Z,5.00
2019-02-19T20:49:43.580Z,5.00
2019-02-19T20:52:12.895Z,5.00
2019-02-19T20:54:42.226Z,5.00
2019-02-19T20:57:11.513Z,5.00
2019-02-19T20:59:41.053Z,5.00
2019-02-19T21:02:10.298Z,5.00
2019-02-19T21:04:39.633Z,5.10
2019-02-19T21:07:08.970Z,5.10
2019-02-19T21:09:43.690Z,5.10
2019-02-19T21:12:09.330Z,5.10
2019-02-19T21:14:38.748Z,5.20
2019-02-19T21:17:08.055Z,5.10
2019-02-19T21:19:37.315Z,4.90
2019-02-19T21:22:07.119Z,4.80
2019-02-19T21:24:36.447Z,4.70
2019-02-19T21:27:13.888Z,4.70
2019-02-19T21:29:43.455Z,4.70
2019-02-19T21:32:12.756Z,4.60
2019-02-19T21:34:42.093Z,4.60
2019-02-19T21:37:11.398Z,4.60
2019-02-19T21:39:40.799Z,4.70
2019-02-19T21:42:10.377Z,4.70
2019-02-19T21:44:39.818Z,4.80
2019-02-19T21:47:09.209Z,4.80
2019-02-19T21:49:40.315Z,4.80
2019-02-19T21:52:11.750Z,4.80
2019-02-19T21:54:41.065Z,4.80
2019-02-19T21:57:10.299Z,4.80
2019-02-19T21:59:39.480Z,4.80
2019-02-19T22:02:16.238Z,4.70
2019-02-19T22:04:39.916Z,4.70
2019-02-19T22:07:09.139Z,4.50
2019-02-19T22:09:38.356Z,4.20
2019-02-19T22:12:07.572Z,4.00
2019-02-19T22:14:36.810Z,3.80
2019-02-19T22:17:06.034Z,3.90
2019-02-19T22:19:35.243Z,3.90
2019-02-19T22:22:11.658Z,3.90
2019-02-19T22:24:40.871Z,3.90
2019-02-19T22:27:10.097Z,3.80
2019-02-19T22:29:40.029Z,3.90
2019-02-19T22:32:10.117Z,4.00
2019-02-19T22:34:43.623Z,4.00
2019-02-19T22:37:12.938Z,4.00
2019-02-19T22:39:52.168Z,4.10
2019-02-19T22:42:21.391Z,4.10
2019-02-19T22:44:50.585Z,4.20
2019-02-19T22:47:22.426Z,4.20
2019-02-19T22:49:51.701Z,4.20
2019-02-19T22:52:20.990Z,4.10
2019-02-19T22:54:58.837Z,3.80
2019-02-19T22:57:28.139Z,3.80
2019-02-19T22:59:57.369Z,3.90
2019-02-19T23:02:28.472Z,3.90
2019-02-19T23:04:57.765Z,3.90
2019-02-19T23:07:26.964Z,3.90
2019-02-19T23:09:56.268Z,3.80
2019-02-19T23:12:25.464Z,3.80
2019-02-19T23:14:54.675Z,3.70
2019-02-19T23:17:23.868Z,3.60
2019-02-19T23:19:53.127Z,3.50
2019-02-19T23:22:22.291Z,3.60
2019-02-19T23:24:51.585Z,3.60
2019-02-19T23:27:20.768Z,3.60
2019-02-19T23:29:49.960Z,3.60
2019-02-19T23:32:19.166Z,3.60
2019-02-19T23:34:50.323Z,3.70
2019-02-19T23:37:22.109Z,3.80
2019-02-19T23:39:51.592Z,3.80
2019-02-19T23:42:20.968Z,3.70
2019-02-19T23:44:50.144Z,3.80
2019-02-19T23:47:19.315Z,3.70
2019-02-19T23:49:48.609Z,3.60
2019-02-19T23:52:17.869Z,3.60
2019-02-19T23:54:47.028Z,3.50
2019-02-19T23:57:16.264Z,3.50
2019-02-19T23:59:45.551Z,3.50
